Time;durP1;ratioP1;P1;durP2;ratioP2;P2;SDS_P1;SDS_P2;PMS_P1;PMS_P2;Temp;Humidity;BMP_temperature;BMP_pressure;BME280_temperature;BME280_humidity;BME280_pressure;Samples;Min_cycle;Max_cycle;Signal;HPM_P1;HPM_P2
2022/08/26 00:00:14;;;;;;;8.80;6.65;;;26.00;56.30;;;;;;5017687;28;20213;-85
2022/08/26 00:02:40;;;;;;;7.30;6.70;;;26.00;56.10;;;;;;5032968;28;20268;-84
2022/08/26 00:05:06;;;;;;;7.53;7.03;;;25.90;56.00;;;;;;5029984;28;20228;-84
2022/08/26 00:07:31;;;;;;;7.28;6.78;;;25.90;56.60;;;;;;5032030;28;20201;-84
2022/08/26 00:09:57;;;;;;;6.88;6.35;;;25.80;57.20;;;;;;5027205;28;20209;-85
2022/08/26 00:12:24;;;;;;;6.80;6.35;;;25.60;58.10;;;;;;5028821;28;20785;-84
2022/08/26 00:14:50;;;;;;;7.35;6.65;;;25.60;58.00;;;;;;5028652;28;20240;-85
2022/08/26 00:17:15;;;;;;;7.10;6.60;;;25.60;58.10;;;;;;5029028;28;20213;-85
2022/08/26 00:19:41;;;;;;;6.60;6.10;;;25.50;58.10;;;;;;5025468;28;20201;-86
2022/08/26 00:22:06;;;;;;;6.93;6.32;;;25.50;58.10;;;;;;5025946;28;20221;-84
2022/08/26 00:24:32;;;;;;;6.63;6.22;;;25.50;58.30;;;;;;5027713;28;20185;-84
2022/08/26 00:26:58;;;;;;;6.80;6.30;;;25.60;57.70;;;;;;5030609;28;20186;-84
2022/08/26 00:29:24;;;;;;;7.57;6.97;;;25.60;57.20;;;;;;5032547;28;20185;-84
2022/08/26 00:31:50;;;;;;;7.35;6.75;;;25.50;58.00;;;;;;5025587;28;20265;-85
2022/08/26 00:34:15;;;;;;;6.85;6.35;;;25.30;58.70;;;;;;5027139;28;20231;-86
2022/08/26 00:36:42;;;;;;;7.25;6.60;;;25.30;58.60;;;;;;5031767;28;20554;-84
2022/08/26 00:39:08;;;;;;;7.00;6.50;;;25.20;58.80;;;;;;5027952;28;20193;-85
2022/08/26 00:41:36;;;;;;;6.78;6.38;;;25.10;59.10;;;;;;5027913;28;20209;-84
2022/08/26 00:44:02;;;;;;;6.82;6.32;;;25.10;59.10;;;;;;5030626;28;20224;-84
2022/08/26 00:46:30;;;;;;;6.28;5.88;;;25.10;59.60;;;;;;5028429;28;20192;-85
2022/08/26 00:49:08;;;;;;;7.10;6.63;;;25.20;59.60;;;;;;5030249;28;20188;-85
2022/08/26 00:51:38;;;;;;;7.20;6.60;;;25.00;60.20;;;;;;5029871;28;20216;-84
2022/08/26 00:54:08;;;;;;;7.22;6.63;;;24.90;60.90;;;;;;5027631;28;20201;-84
2022/08/26 00:56:42;;;;;;;7.00;6.50;;;25.00;60.00;;;;;;5025680;28;20363;-83
2022/08/26 00:59:10;;;;;;;7.63;6.95;;;25.00;59.50;;;;;;5027263;28;20209;-83
2022/08/26 01:01:38;;;;;;;7.10;6.50;;;25.00;59.60;;;;;;5029511;28;20288;-85
2022/08/26 01:04:04;;;;;;;6.88;6.38;;;25.00;59.10;;;;;;5030468;28;20218;-84
2022/08/26 01:06:30;;;;;;;7.28;6.57;;;25.00;59.30;;;;;;5029168;28;20216;-85
2022/08/26 01:08:56;;;;;;;7.57;6.97;;;25.00;59.10;;;;;;5032163;28;20188;-84
2022/08/26 01:11:23;;;;;;;6.30;5.78;;;25.00;59.10;;;;;;5025746;28;20681;-84
2022/08/26 01:13:53;;;;;;;7.38;6.88;;;25.00;59.00;;;;;;5028699;28;20188;-84
2022/08/26 01:16:20;;;;;;;6.97;6.40;;;25.10;59.50;;;;;;5031588;28;20182;-85
2022/08/26 01:18:47;;;;;;;7.03;6.53;;;25.00;59.10;;;;;;5028091;28;20185;-84
2022/08/26 01:21:15;;;;;;;6.82;6.40;;;25.00;59.10;;;;;;5026965;28;20205;-84
2022/08/26 01:23:46;;;;;;;7.55;6.95;;;24.90;59.30;;;;;;5032680;28;20188;-84
2022/08/26 01:26:18;;;;;;;6.57;6.07;;;25.00;59.30;;;;;;5039053;28;20242;-85
2022/08/26 01:28:44;;;;;;;7.55;6.97;;;24.80;59.70;;;;;;5031841;28;20204;-84
2022/08/26 01:31:13;;;;;;;7.50;7.00;;;24.80;60.10;;;;;;5029372;28;20301;-83
2022/08/26 01:33:46;;;;;;;7.30;6.70;;;24.80;60.30;;;;;;5026353;28;20182;-86
2022/08/26 01:36:12;;;;;;;7.60;7.00;;;24.70;60.00;;;;;;5035501;28;20314;-86
2022/08/26 01:38:39;;;;;;;6.88;6.38;;;24.70;60.10;;;;;;5030305;28;20177;-84
2022/08/26 01:41:06;;;;;;;7.60;7.00;;;24.70;60.50;;;;;;5028001;28;20205;-85
2022/08/26 01:43:35;;;;;;;7.80;7.07;;;24.60;61.20;;;;;;5032064;28;20193;-84
2022/08/26 01:46:01;;;;;;;7.32;6.82;;;24.60;61.10;;;;;;5029871;28;20199;-86
2022/08/26 01:48:30;;;;;;;8.93;6.95;;;24.50;61.50;;;;;;5033885;28;20694;-84
2022/08/26 01:50:57;;;;;;;8.25;7.22;;;24.40;61.40;;;;;;5031516;28;20206;-84
2022/08/26 01:53:25;;;;;;;7.07;6.57;;;24.30;61.60;;;;;;5032358;28;20177;-84
2022/08/26 01:55:56;;;;;;;6.88;6.38;;;24.30;62.70;;;;;;5034768;28;20185;-85
2022/08/26 01:58:35;;;;;;;7.50;6.90;;;24.30;61.40;;;;;;5031230;28;20521;-84
2022/08/26 02:01:02;;;;;;;7.05;6.40;;;24.30;61.20;;;;;;5028918;28;20209;-84
2022/08/26 02:03:28;;;;;;;7.75;7.25;;;24.40;61.00;;;;;;5036284;28;20200;-85
2022/08/26 02:06:00;;;;;;;7.20;6.70;;;24.40;61.70;;;;;;5034687;28;20194;-84
2022/08/26 02:08:33;;;;;;;7.78;7.25;;;24.20;63.20;;;;;;5034654;28;20197;-84
2022/08/26 02:10:59;;;;;;;7.78;7.28;;;24.20;63.70;;;;;;5031447;28;20308;-85
2022/08/26 02:13:30;;;;;;;7.60;7.05;;;24.10;63.40;;;;;;5030889;28;20236;-85
2022/08/26 02:15:57;;;;;;;7.88;7.28;;;24.20;62.70;;;;;;5028965;28;20649;-84
2022/08/26 02:18:24;;;;;;;7.53;6.85;;;24.20;62.10;;;;;;5034810;28;20271;-85
2022/08/26 02:20:53;;;;;;;6.97;6.47;;;24.20;62.50;;;;;;5031805;28;20299;-86
2022/08/26 02:23:19;;;;;;;7.53;6.88;;;24.10;62.80;;;;;;5040891;28;20203;-85
2022/08/26 02:26:10;;;;;;;7.32;6.82;;;24.00;63.00;;;;;;5034532;28;20188;-86
2022/08/26 02:28:57;;;;;;;7.53;6.90;;;24.00;63.40;;;;;;5029520;28;20228;-84
2022/08/26 02:31:23;;;;;;;7.25;6.68;;;24.00;63.00;;;;;;5028799;28;20715;-85
2022/08/26 02:33:49;;;;;;;7.40;6.90;;;24.00;62.90;;;;;;5031896;28;20219;-85
2022/08/26 02:36:23;;;;;;;8.50;7.70;;;23.80;63.70;;;;;;5032483;28;20594;-86
2022/08/26 02:38:49;;;;;;;7.82;7.13;;;23.70;65.00;;;;;;5032914;28;20185;-84
2022/08/26 02:41:15;;;;;;;7.57;6.97;;;23.70;65.10;;;;;;5031795;28;20209;-85
2022/08/26 02:43:41;;;;;;;7.93;7.22;;;23.70;64.90;;;;;;5033403;28;20197;-85
2022/08/26 02:46:06;;;;;;;8.50;7.70;;;23.60;66.30;;;;;;5032427;28;20189;-85
2022/08/26 02:48:32;;;;;;;8.05;7.45;;;23.60;66.30;;;;;;5036140;28;20199;-84
2022/08/26 02:50:59;;;;;;;7.60;7.00;;;23.60;65.90;;;;;;5029790;28;20281;-84
2022/08/26 02:53:25;;;;;;;7.45;6.88;;;23.70;64.90;;;;;;5037186;28;20648;-85
2022/08/26 02:55:51;;;;;;;8.20;7.60;;;23.70;64.40;;;;;;5030994;28;20281;-86
2022/08/26 02:58:17;;;;;;;8.35;7.55;;;23.70;65.10;;;;;;5030848;28;20211;-84
2022/08/26 03:00:42;;;;;;;8.25;7.45;;;23.80;64.80;;;;;;5030438;28;20266;-84
2022/08/26 03:03:08;;;;;;;7.90;7.30;;;23.70;65.30;;;;;;5034482;28;20193;-84
2022/08/26 03:05:34;;;;;;;7.32;6.72;;;23.50;65.40;;;;;;5030381;28;20205;-84
2022/08/26 03:08:00;;;;;;;8.13;7.32;;;23.40;65.10;;;;;;5030678;28;20529;-86
2022/08/26 03:10:26;;;;;;;7.70;7.00;;;23.50;65.10;;;;;;5030982;28;20213;-84
2022/08/26 03:12:52;;;;;;;7.13;6.53;;;23.50;65.60;;;;;;5036813;28;20246;-84
2022/08/26 03:15:18;;;;;;;7.65;7.05;;;23.50;64.80;;;;;;5027004;28;20185;-85
2022/08/26 03:17:48;;;;;;;6.97;6.38;;;23.50;64.50;;;;;;5029800;28;20193;-84
2022/08/26 03:20:14;;;;;;;7.97;7.38;;;23.60;64.70;;;;;;5028097;28;20706;-83
2022/08/26 03:22:40;;;;;;;7.85;7.13;;;23.40;65.40;;;;;;5035946;28;20200;-85
2022/08/26 03:25:09;;;;;;;7.45;6.93;;;23.00;66.50;;;;;;5026234;28;20805;-83
2022/08/26 03:27:35;;;;;;;7.97;7.38;;;23.10;66.40;;;;;;5027707;28;20715;-83
2022/08/26 03:32:44;;;;;;;7.45;6.85;;;23.20;66.20;;;;;;5026615;28;20179;-85
2022/08/26 03:35:11;;;;;;;7.82;7.18;;;23.10;65.90;;;;;;5026172;28;20264;-83
2022/08/26 03:37:37;;;;;;;6.88;6.38;;;23.10;66.40;;;;;;5032469;28;20219;-84
2022/08/26 03:40:05;;;;;;;8.00;7.40;;;23.20;65.40;;;;;;5025961;28;20237;-83
2022/08/26 03:42:30;;;;;;;20.90;8.48;;;23.20;65.00;;;;;;5029476;28;20186;-83
2022/08/26 03:44:56;;;;;;;45.05;11.40;;;23.20;65.00;;;;;;5033037;28;20189;-85
2022/08/26 03:47:22;;;;;;;24.08;8.70;;;23.30;64.90;;;;;;5025878;28;20204;-82
2022/08/26 03:49:47;;;;;;;18.48;7.80;;;23.30;64.60;;;;;;5025903;28;20534;-83
2022/08/26 03:52:13;;;;;;;8.80;6.68;;;23.30;64.40;;;;;;5028235;28;20250;-83
2022/08/26 03:54:39;;;;;;;10.95;7.35;;;23.40;64.20;;;;;;5029824;28;20185;-83
2022/08/26 03:57:05;;;;;;;12.13;7.60;;;23.30;64.40;;;;;;5029113;28;20181;-84
2022/08/26 03:59:31;;;;;;;7.55;6.85;;;23.30;65.00;;;;;;5025080;28;20189;-83
2022/08/26 04:01:56;;;;;;;7.63;7.13;;;23.10;66.10;;;;;;5031331;28;20224;-83
2022/08/26 04:04:22;;;;;;;9.40;7.35;;;22.80;68.30;;;;;;5031474;28;20189;-85
2022/08/26 04:06:48;;;;;;;7.63;6.93;;;22.50;70.20;;;;;;5024565;28;20225;-83
2022/08/26 04:09:19;;;;;;;7.72;7.07;;;22.40;69.30;;;;;;5032680;28;20225;-83
2022/08/26 04:11:47;;;;;;;7.95;7.20;;;22.50;68.90;;;;;;5033382;28;20205;-83
2022/08/26 04:14:15;;;;;;;7.97;7.28;;;22.60;69.30;;;;;;5029093;28;20221;-82
2022/08/26 04:16:42;;;;;;;9.63;8.05;;;22.70;68.90;;;;;;5028250;28;20185;-83
2022/08/26 04:19:09;;;;;;;7.97;7.38;;;22.60;68.40;;;;;;5026192;28;20182;-85
2022/08/26 04:21:37;;;;;;;10.73;7.90;;;22.60;68.80;;;;;;5034193;28;20217;-82
2022/08/26 04:24:03;;;;;;;9.70;7.47;;;22.50;69.20;;;;;;5029010;28;20193;-85
2022/08/26 04:26:35;;;;;;;8.07;7.32;;;22.50;68.10;;;;;;5029950;28;20220;-86
2022/08/26 04:29:06;;;;;;;7.43;6.72;;;22.40;68.80;;;;;;5029090;28;20189;-83
2022/08/26 04:31:36;;;;;;;8.18;6.90;;;22.40;69.10;;;;;;5024615;28;20228;-84
2022/08/26 04:34:02;;;;;;;7.70;7.00;;;22.50;68.40;;;;;;5024960;28;20201;-82
2022/08/26 04:36:29;;;;;;;8.00;7.35;;;22.50;68.40;;;;;;5025664;28;20188;-88
2022/08/26 04:38:55;;;;;;;8.40;6.90;;;22.60;68.00;;;;;;5028153;28;20185;-88
2022/08/26 04:41:22;;;;;;;8.07;7.38;;;22.60;67.50;;;;;;5025239;28;20213;-84
2022/08/26 04:43:49;;;;;;;6.55;6.10;;;22.50;67.90;;;;;;5026541;28;20323;-84
2022/08/26 04:46:20;;;;;;;7.35;6.75;;;22.50;68.80;;;;;;5028250;28;20340;-86
2022/08/26 04:48:47;;;;;;;8.40;7.13;;;22.40;68.90;;;;;;5031469;28;20193;-84
2022/08/26 04:51:13;;;;;;;7.07;6.47;;;22.50;69.30;;;;;;5026941;28;20271;-85
2022/08/26 04:53:39;;;;;;;7.68;7.07;;;22.60;67.90;;;;;;5027163;28;20244;-85
2022/08/26 04:56:05;;;;;;;7.03;6.53;;;22.60;67.40;;;;;;5028536;28;20284;-84
2022/08/26 04:58:30;;;;;;;6.57;6.18;;;22.60;67.80;;;;;;5029042;28;20181;-84
2022/08/26 05:00:57;;;;;;;8.07;7.13;;;22.60;67.70;;;;;;5026833;28;20213;-85
2022/08/26 05:03:24;;;;;;;9.20;7.43;;;22.50;67.80;;;;;;5029309;28;20236;-85
2022/08/26 05:05:50;;;;;;;7.70;6.63;;;22.40;68.00;;;;;;5030651;28;20265;-85
2022/08/26 05:08:17;;;;;;;7.47;6.97;;;22.40;68.10;;;;;;5028733;28;20296;-84
2022/08/26 05:10:47;;;;;;;7.28;6.70;;;22.50;68.10;;;;;;5028181;28;20216;-84
2022/08/26 05:13:14;;;;;;;8.15;7.35;;;22.50;67.70;;;;;;5029808;28;20235;-84
2022/08/26 05:15:40;;;;;;;7.47;6.85;;;22.50;67.80;;;;;;5023740;28;20521;-84
2022/08/26 05:18:07;;;;;;;8.70;6.80;;;22.60;67.50;;;;;;5025739;28;20185;-84
2022/08/26 05:20:42;;;;;;;8.15;7.15;;;22.60;67.60;;;;;;5025862;28;20729;-84
2022/08/26 05:23:07;;;;;;;7.28;6.60;;;22.60;67.70;;;;;;5026690;28;20316;-85
2022/08/26 05:25:39;;;;;;;7.80;7.15;;;22.40;68.90;;;;;;5027333;28;20356;-84
2022/08/26 05:28:05;;;;;;;7.78;7.13;;;22.40;69.30;;;;;;5025731;28;20193;-85
2022/08/26 05:30:30;;;;;;;7.95;7.25;;;22.40;69.70;;;;;;5023308;28;20711;-84
2022/08/26 05:32:56;;;;;;;7.75;7.25;;;22.50;69.50;;;;;;5032837;28;20280;-85
2022/08/26 05:35:22;;;;;;;7.80;7.15;;;22.50;69.30;;;;;;5044156;28;20203;-87
2022/08/26 05:37:48;;;;;;;7.63;7.03;;;22.40;69.10;;;;;;5049397;28;20212;-87
2022/08/26 05:40:14;;;;;;;7.75;7.15;;;22.60;68.80;;;;;;5051973;28;20212;-84
2022/08/26 05:42:40;;;;;;;8.40;7.60;;;22.60;69.30;;;;;;5027476;28;20212;-84
2022/08/26 05:45:07;;;;;;;7.43;6.80;;;22.60;68.90;;;;;;5027676;28;20197;-84
2022/08/26 05:47:33;;;;;;;8.80;7.90;;;22.70;68.80;;;;;;5016436;28;20570;-84
2022/08/26 05:49:59;;;;;;;9.30;7.60;;;22.70;68.80;;;;;;5028568;28;20245;-86
2022/08/26 05:52:25;;;;;;;9.95;7.75;;;22.70;69.00;;;;;;5029917;28;20670;-84
2022/08/26 05:54:51;;;;;;;9.10;8.20;;;22.70;69.10;;;;;;5023455;28;20205;-85
2022/08/26 05:57:17;;;;;;;9.70;8.40;;;22.70;69.40;;;;;;5026861;28;20708;-86
2022/08/26 05:59:42;;;;;;;10.43;9.00;;;22.80;68.50;;;;;;5024983;28;20188;-84
2022/08/26 06:02:08;;;;;;;11.43;9.00;;;22.90;67.70;;;;;;5031684;28;20193;-84
2022/08/26 06:04:34;;;;;;;10.80;8.45;;;23.00;67.50;;;;;;5031128;28;20673;-84
2022/08/26 06:07:00;;;;;;;10.52;9.43;;;23.10;67.60;;;;;;5027167;28;20189;-84
2022/08/26 06:09:26;;;;;;;9.40;8.70;;;23.10;67.90;;;;;;5025072;28;20267;-84
2022/08/26 06:11:51;;;;;;;10.40;8.73;;;23.10;68.70;;;;;;5033066;28;20272;-84
2022/08/26 06:14:17;;;;;;;9.15;8.32;;;23.10;68.60;;;;;;5034837;28;20611;-84
2022/08/26 06:16:43;;;;;;;9.88;8.98;;;23.20;68.50;;;;;;5033484;28;20185;-85
2022/08/26 06:19:12;;;;;;;9.43;8.50;;;23.30;67.60;;;;;;5031353;28;20193;-84
2022/08/26 06:21:40;;;;;;;10.02;9.27;;;23.30;67.40;;;;;;5028970;28;20223;-85
2022/08/26 06:27:00;;;;;;;12.98;9.20;;;23.40;67.40;;;;;;5039339;28;20225;-83
2022/08/26 06:29:26;;;;;;;11.35;8.98;;;23.40;68.50;;;;;;5039799;28;20185;-86
2022/08/26 06:31:53;;;;;;;9.32;8.55;;;23.40;68.10;;;;;;5033365;28;20208;-84
2022/08/26 06:34:19;;;;;;;10.60;9.32;;;23.50;68.80;;;;;;5029744;28;20188;-82
2022/08/26 06:36:46;;;;;;;9.30;8.50;;;23.40;69.30;;;;;;5022339;28;20529;-84
2022/08/26 06:39:13;;;;;;;9.45;8.65;;;23.30;69.30;;;;;;5029033;28;20605;-84
2022/08/26 06:41:41;;;;;;;9.45;8.70;;;23.30;70.70;;;;;;5032786;28;20212;-83
2022/08/26 06:44:06;;;;;;;9.50;8.65;;;23.30;70.50;;;;;;5027821;28;20269;-84
2022/08/26 06:46:33;;;;;;;8.98;8.07;;;23.30;70.10;;;;;;5029282;28;20724;-84
2022/08/26 06:48:59;;;;;;;17.73;9.18;;;23.40;69.40;;;;;;5026284;28;20276;-83
2022/08/26 06:51:35;;;;;;;14.50;9.57;;;23.50;69.70;;;;;;5024854;28;20703;-84
2022/08/26 06:54:02;;;;;;;11.07;9.85;;;23.50;70.20;;;;;;5027070;28;20220;-83
2022/08/26 06:56:34;;;;;;;9.82;9.02;;;23.40;71.00;;;;;;5030142;28;20695;-84
2022/08/26 06:59:00;;;;;;;9.30;8.60;;;23.20;71.50;;;;;;5034764;28;20219;-83
2022/08/26 07:01:32;;;;;;;8.93;8.27;;;23.30;70.80;;;;;;5030395;28;20200;-83
2022/08/26 07:04:02;;;;;;;9.52;8.73;;;23.50;69.50;;;;;;5017795;28;20208;-83
2022/08/26 07:06:28;;;;;;;10.30;9.20;;;23.60;70.40;;;;;;5026512;28;20195;-83
2022/08/26 07:09:00;;;;;;;9.73;9.00;;;23.70;70.10;;;;;;5030149;28;20193;-83
2022/08/26 07:11:27;;;;;;;10.30;9.18;;;23.70;69.70;;;;;;5028297;28;20290;-84
2022/08/26 07:13:53;;;;;;;9.60;8.80;;;23.80;69.20;;;;;;5027292;28;20544;-86
2022/08/26 07:16:19;;;;;;;9.90;8.95;;;23.90;69.50;;;;;;5026695;28;20205;-84
2022/08/26 07:18:45;;;;;;;9.55;8.85;;;24.00;70.30;;;;;;5025693;28;20196;-85
2022/08/26 07:21:14;;;;;;;9.40;8.48;;;24.10;69.70;;;;;;5026755;28;20220;-85
2022/08/26 07:23:40;;;;;;;9.27;8.48;;;24.20;68.90;;;;;;5033631;28;20196;-85
2022/08/26 07:26:09;;;;;;;8.98;8.18;;;24.30;68.20;;;;;;5026048;28;20198;-83
2022/08/26 07:28:35;;;;;;;9.18;8.38;;;24.50;67.30;;;;;;5034078;28;20704;-84
2022/08/26 07:31:06;;;;;;;9.32;8.27;;;24.60;67.00;;;;;;5027543;28;20295;-84
2022/08/26 07:33:32;;;;;;;9.93;9.10;;;24.60;66.80;;;;;;5030591;28;20617;-86
2022/08/26 07:35:58;;;;;;;9.75;8.95;;;24.90;65.50;;;;;;5025334;28;20190;-86
2022/08/26 07:38:23;;;;;;;10.00;9.10;;;24.90;64.10;;;;;;5029651;28;20391;-85
2022/08/26 07:40:49;;;;;;;8.98;8.25;;;25.00;63.50;;;;;;5026009;28;20718;-85
2022/08/26 07:43:14;;;;;;;10.65;9.27;;;25.20;62.80;;;;;;5028495;28;20212;-85
2022/08/26 07:45:41;;;;;;;9.48;8.57;;;25.30;63.10;;;;;;5024320;28;20265;-85
2022/08/26 07:48:06;;;;;;;14.85;9.73;;;25.30;61.80;;;;;;5029031;28;20209;-84
2022/08/26 07:50:33;;;;;;;10.60;9.73;;;25.40;61.70;;;;;;5024300;28;20296;-84
2022/08/26 07:53:00;;;;;;;9.27;8.63;;;25.40;60.40;;;;;;5034273;28;20231;-83
2022/08/26 07:55:27;;;;;;;9.98;9.02;;;25.10;61.30;;;;;;5027486;28;20176;-84
2022/08/26 07:57:52;;;;;;;9.73;8.93;;;25.10;62.00;;;;;;5033888;28;20213;-84
2022/08/26 08:00:19;;;;;;;10.02;9.13;;;25.10;62.70;;;;;;5027613;28;20224;-85
2022/08/26 08:02:45;;;;;;;10.57;9.68;;;25.00;64.50;;;;;;5030440;28;20862;-84
2022/08/26 08:05:12;;;;;;;9.85;9.00;;;25.10;64.10;;;;;;5027653;28;20288;-85
2022/08/26 08:07:38;;;;;;;9.65;8.70;;;25.40;63.60;;;;;;5027597;28;20189;-83
2022/08/26 08:10:06;;;;;;;10.75;9.68;;;25.70;61.60;;;;;;5028353;28;20225;-84
2022/08/26 08:12:31;;;;;;;9.85;9.02;;;25.80;59.60;;;;;;5028850;28;20188;-84
2022/08/26 08:14:57;;;;;;;9.77;9.02;;;25.90;59.40;;;;;;5026083;28;20335;-84
2022/08/26 08:17:23;;;;;;;9.63;8.82;;;25.90;59.00;;;;;;5024055;28;20681;-84
2022/08/26 08:19:48;;;;;;;10.95;9.52;;;25.90;58.30;;;;;;5019441;28;20194;-85
2022/08/26 08:22:16;;;;;;;10.57;9.77;;;25.90;58.30;;;;;;5034652;28;20746;-84
2022/08/26 08:24:42;;;;;;;9.18;8.35;;;26.00;58.10;;;;;;5036005;28;20262;-84
2022/08/26 08:27:08;;;;;;;9.57;8.68;;;26.10;56.30;;;;;;5029226;28;20228;-83
2022/08/26 08:29:36;;;;;;;8.68;8.07;;;26.30;56.40;;;;;;5026370;28;20224;-84
2022/08/26 08:32:03;;;;;;;10.00;9.10;;;26.40;55.00;;;;;;5025095;28;20223;-84
2022/08/26 08:34:29;;;;;;;9.18;8.45;;;26.40;55.40;;;;;;5029005;28;20273;-83
2022/08/26 08:36:56;;;;;;;9.35;8.45;;;26.60;54.90;;;;;;5030608;28;20216;-84
2022/08/26 08:39:22;;;;;;;10.38;8.50;;;26.70;55.10;;;;;;5026593;28;20196;-84
2022/08/26 08:42:14;;;;;;;9.02;8.27;;;26.70;54.30;;;;;;5027414;28;20205;-85
2022/08/26 08:44:44;;;;;;;10.30;9.30;;;26.80;53.30;;;;;;5029589;28;20219;-84
2022/08/26 08:47:33;;;;;;;8.35;7.65;;;26.80;52.70;;;;;;5028144;28;20185;-84
2022/08/26 08:50:09;;;;;;;16.58;9.20;;;26.90;52.20;;;;;;5019235;28;20236;-85
2022/08/26 08:52:36;;;;;;;8.85;8.18;;;27.00;53.10;;;;;;5028837;28;20227;-85
2022/08/26 08:55:04;;;;;;;9.45;8.68;;;27.10;53.30;;;;;;5030786;28;20193;-85
2022/08/26 08:57:49;;;;;;;8.02;7.43;;;27.10;53.10;;;;;;5032264;28;20186;-85
2022/08/26 09:00:18;;;;;;;10.93;8.43;;;27.20;52.50;;;;;;5030492;28;20220;-85
2022/08/26 09:03:00;;;;;;;9.07;8.38;;;27.30;52.00;;;;;;5037627;28;20173;-86
2022/08/26 09:05:39;;;;;;;7.95;7.35;;;27.50;51.00;;;;;;5031738;28;20188;-85
2022/08/26 09:08:10;;;;;;;8.85;8.13;;;27.80;51.30;;;;;;5037829;28;20177;-85
2022/08/26 09:10:39;;;;;;;9.13;8.32;;;27.70;50.30;;;;;;5040043;28;20812;-85
2022/08/26 09:13:11;;;;;;;9.60;8.80;;;27.60;51.00;;;;;;5033419;28;20200;-83
2022/08/26 09:15:58;;;;;;;10.23;9.13;;;27.60;50.70;;;;;;5034088;28;20266;-84
2022/08/26 09:18:45;;;;;;;10.38;9.32;;;27.60;51.30;;;;;;5037198;28;20177;-85
2022/08/26 09:21:14;;;;;;;9.85;9.15;;;27.80;50.30;;;;;;5031720;28;20204;-85
2022/08/26 09:23:41;;;;;;;10.25;9.35;;;28.00;50.00;;;;;;5027117;28;20197;-85
2022/08/26 09:26:20;;;;;;;9.38;8.75;;;28.00;50.50;;;;;;5025506;28;20197;-86
2022/08/26 09:28:52;;;;;;;10.65;9.85;;;28.40;49.40;;;;;;5043194;28;20196;-85
2022/08/26 09:31:26;;;;;;;11.05;10.02;;;28.70;48.90;;;;;;5039729;28;20213;-85
2022/08/26 09:34:23;;;;;;;11.25;10.13;;;28.90;47.20;;;;;;5037094;28;20192;-85
2022/08/26 09:36:50;;;;;;;14.43;10.23;;;29.20;46.70;;;;;;5028570;28;20550;-85
2022/08/26 09:39:37;;;;;;;10.50;9.60;;;28.90;47.00;;;;;;5035992;28;20185;-86
2022/08/26 09:42:04;;;;;;;9.25;8.48;;;29.10;47.90;;;;;;5035896;28;20588;-85
2022/08/26 09:44:31;;;;;;;9.60;8.70;;;29.20;46.60;;;;;;5034810;28;20736;-85
2022/08/26 09:47:07;;;;;;;10.57;9.70;;;29.20;46.50;;;;;;5039754;28;20193;-85
2022/08/26 09:49:40;;;;;;;10.98;10.05;;;29.20;46.40;;;;;;5040638;28;20183;-86
2022/08/26 09:52:20;;;;;;;12.23;9.75;;;29.50;45.70;;;;;;5037990;28;20208;-85
2022/08/26 09:55:01;;;;;;;12.27;9.35;;;29.70;45.30;;;;;;5041866;28;20202;-85
2022/08/26 09:57:32;;;;;;;11.35;10.35;;;29.90;45.50;;;;;;5033945;28;20192;-86
2022/08/26 09:59:59;;;;;;;10.68;9.77;;;30.00;45.80;;;;;;5039034;28;20192;-83
2022/08/26 10:02:31;;;;;;;11.43;10.52;;;29.90;44.50;;;;;;5039649;28;20177;-84
2022/08/26 10:04:59;;;;;;;10.57;9.70;;;30.20;44.00;;;;;;5039443;28;20189;-84
2022/08/26 10:07:37;;;;;;;13.18;11.38;;;30.30;43.60;;;;;;5045367;28;20197;-85
2022/08/26 10:10:08;;;;;;;11.30;10.23;;;30.50;43.20;;;;;;5044686;28;20825;-86
2022/08/26 10:12:40;;;;;;;11.43;10.38;;;30.70;41.80;;;;;;5038229;28;20192;-85
2022/08/26 10:15:10;;;;;;;10.23;9.43;;;30.70;42.00;;;;;;5036734;28;20212;-84
2022/08/26 10:17:42;;;;;;;11.30;10.40;;;30.70;42.10;;;;;;5035804;28;20280;-87
2022/08/26 10:20:13;;;;;;;10.18;9.27;;;31.00;41.50;;;;;;5034102;28;20213;-85
2022/08/26 10:22:50;;;;;;;10.40;9.60;;;31.20;40.70;;;;;;5038331;28;20187;-85
2022/08/26 10:25:21;;;;;;;9.93;9.20;;;31.40;40.20;;;;;;5037556;28;20243;-86
2022/08/26 10:28:06;;;;;;;9.90;9.07;;;31.60;39.70;;;;;;5038168;28;20176;-85
2022/08/26 10:30:58;;;;;;;10.35;9.45;;;31.80;38.90;;;;;;5035151;28;20212;-86
2022/08/26 10:33:24;;;;;;;10.15;9.32;;;31.80;38.50;;;;;;5038837;28;20188;-86
2022/08/26 10:35:51;;;;;;;9.95;9.15;;;32.00;38.40;;;;;;5041520;28;20311;-85
2022/08/26 10:38:22;;;;;;;10.18;9.13;;;32.00;38.10;;;;;;5042513;28;20185;-85
2022/08/26 10:41:04;;;;;;;9.57;8.68;;;32.10;37.80;;;;;;5043820;28;20209;-85
2022/08/26 10:43:39;;;;;;;9.10;8.40;;;32.20;37.00;;;;;;5040358;28;20492;-85
2022/08/26 10:46:15;;;;;;;8.70;8.02;;;32.30;37.10;;;;;;5033847;28;20219;-84
2022/08/26 10:48:52;;;;;;;8.73;8.13;;;32.60;35.80;;;;;;5034760;28;20187;-85
2022/08/26 10:51:25;;;;;;;10.10;9.02;;;32.90;35.20;;;;;;5035050;28;20255;-85
2022/08/26 10:54:09;;;;;;;9.30;8.50;;;33.10;35.20;;;;;;5032838;28;20441;-85
2022/08/26 10:57:00;;;;;;;9.30;8.50;;;33.10;35.50;;;;;;5039047;28;20283;-85
2022/08/26 10:59:48;;;;;;;9.82;8.93;;;33.00;34.40;;;;;;5032737;28;20246;-85
2022/08/26 11:02:30;;;;;;;8.93;8.20;;;33.30;34.50;;;;;;5031640;28;20275;-85
2022/08/26 11:05:01;;;;;;;8.60;7.90;;;33.50;33.60;;;;;;5027291;28;20177;-86
2022/08/26 11:07:32;;;;;;;8.23;7.53;;;33.50;32.90;;;;;;5029381;28;20184;-86
2022/08/26 11:10:00;;;;;;;8.55;7.88;;;33.60;32.60;;;;;;5032563;28;20251;-85
2022/08/26 11:12:34;;;;;;;9.48;7.68;;;33.40;33.50;;;;;;5036687;28;20622;-85
2022/08/26 11:15:12;;;;;;;8.93;8.10;;;33.50;33.30;;;;;;5035034;28;20176;-86
2022/08/26 11:17:43;;;;;;;8.25;7.72;;;33.70;33.10;;;;;;5033244;28;20258;-85
2022/08/26 11:20:22;;;;;;;7.88;7.38;;;33.90;32.60;;;;;;5035410;28;20205;-85
2022/08/26 11:22:53;;;;;;;8.50;7.88;;;34.10;32.20;;;;;;5034644;28;20370;-85
2022/08/26 11:25:20;;;;;;;8.05;7.43;;;34.40;31.60;;;;;;5033867;28;20216;-85
2022/08/26 11:27:49;;;;;;;7.82;7.22;;;34.50;31.80;;;;;;5035668;28;20205;-85
2022/08/26 11:30:15;;;;;;;7.90;7.38;;;34.30;31.60;;;;;;5033674;28;20211;-85
2022/08/26 11:32:40;;;;;;;7.55;6.97;;;34.70;31.40;;;;;;5034361;28;20256;-84
2022/08/26 11:35:18;;;;;;;7.63;7.22;;;34.80;30.00;;;;;;5032732;28;20235;-84
2022/08/26 11:37:49;;;;;;;8.43;7.82;;;34.90;30.50;;;;;;5033239;28;20176;-85
2022/08/26 11:40:19;;;;;;;8.52;7.93;;;35.10;30.80;;;;;;5034375;28;20212;-84
2022/08/26 11:42:50;;;;;;;8.63;7.93;;;35.10;30.40;;;;;;5038120;28;20253;-84
2022/08/26 11:45:26;;;;;;;7.82;7.32;;;34.50;30.70;;;;;;5035877;28;20328;-85
2022/08/26 11:47:53;;;;;;;8.07;7.55;;;34.60;30.70;;;;;;5037780;28;20195;-86
2022/08/26 11:50:24;;;;;;;8.13;7.45;;;34.80;30.20;;;;;;5035574;28;20217;-84
2022/08/26 11:53:03;;;;;;;8.02;7.53;;;34.80;30.20;;;;;;5036451;28;20672;-85
2022/08/26 11:55:31;;;;;;;8.00;7.45;;;34.90;30.40;;;;;;5034958;28;20227;-84
2022/08/26 11:57:59;;;;;;;8.70;8.10;;;35.10;30.00;;;;;;5034497;28;20191;-84
2022/08/26 12:00:29;;;;;;;9.27;8.50;;;35.40;30.00;;;;;;5034035;28;20270;-86
2022/08/26 12:02:57;;;;;;;8.77;8.15;;;35.80;29.50;;;;;;5035336;28;20559;-87
2022/08/26 12:05:29;;;;;;;9.10;8.50;;;36.20;29.10;;;;;;5033626;28;20230;-85
2022/08/26 12:07:55;;;;;;;8.73;8.07;;;36.10;29.00;;;;;;5032689;28;20180;-86
2022/08/26 12:10:28;;;;;;;8.98;8.48;;;36.00;28.90;;;;;;5032406;28;20208;-85
2022/08/26 12:12:56;;;;;;;9.82;9.00;;;35.90;28.90;;;;;;5033012;28;20644;-85
2022/08/26 12:15:23;;;;;;;8.45;7.95;;;36.00;29.10;;;;;;5030427;28;20192;-85
2022/08/26 12:17:49;;;;;;;9.50;8.70;;;35.70;29.10;;;;;;5031653;28;20212;-85
2022/08/26 12:20:29;;;;;;;8.85;8.20;;;36.00;29.20;;;;;;5032790;28;20683;-86
2022/08/26 12:22:57;;;;;;;8.18;7.68;;;36.10;29.50;;;;;;5030742;28;20188;-85
2022/08/26 12:25:24;;;;;;;9.10;8.50;;;36.20;28.90;;;;;;5039160;28;20203;-84
2022/08/26 12:27:50;;;;;;;9.25;8.63;;;36.40;28.30;;;;;;5047846;28;20192;-84
2022/08/26 12:30:19;;;;;;;8.80;8.20;;;36.80;27.90;;;;;;5039216;28;20239;-84
2022/08/26 12:32:52;;;;;;;9.05;8.45;;;36.70;27.60;;;;;;5031051;28;20188;-84
2022/08/26 12:35:19;;;;;;;9.65;8.98;;;36.60;27.90;;;;;;5030430;28;20195;-85
2022/08/26 12:37:48;;;;;;;10.05;9.10;;;36.60;28.20;;;;;;5029297;28;20192;-85
2022/08/26 12:40:40;;;;;;;10.20;9.50;;;37.10;28.40;;;;;;5034131;28;20200;-85
2022/08/26 12:43:08;;;;;;;10.43;9.63;;;36.80;28.40;;;;;;5030022;28;20226;-86
2022/08/26 12:45:41;;;;;;;11.15;10.35;;;36.60;28.80;;;;;;5032318;28;20188;-87
2022/08/26 12:48:27;;;;;;;10.95;10.15;;;36.40;29.20;;;;;;5036716;28;20207;-85
2022/08/26 12:50:54;;;;;;;9.95;9.35;;;36.90;28.90;;;;;;5038005;28;20228;-84
2022/08/26 12:53:25;;;;;;;11.20;10.02;;;37.10;28.40;;;;;;5041204;28;20271;-85
2022/08/26 12:55:56;;;;;;;10.35;9.65;;;36.80;28.30;;;;;;5039618;28;20191;-85
2022/08/26 12:58:34;;;;;;;10.85;10.07;;;36.50;29.00;;;;;;5032400;28;20234;-84